»·PEaware :: WAT306 KHCR-KOTH

WAT306 :: KHCR-KOTH

FLIGHT INFORMATION

Flight Status: Arrived
Operator:
Walker Air Transport
More flights by this operator :: More flights under this callsign
Pilot: Ethan S. (29221)
Aircraft: SOCATA TBM-900
(TBM9)
More flights by this aircraft type
Origin: KHCR Heber Valley
United States
Destination: KOTH North Bend Mun
United States
More flights between these airports :: More routes between these airports
Route: COOLI PATIO LCU PRNCS KINZY
File this flight plan on PilotEdge
Remarks:
Altitude:
(Current/Filed)
28,000ft
Speed:
(Current/Filed)
315kts
Departed: 19-Nov-20 07:31 PM
Arrived: 19-Nov-20 10:02 PM
Distance/Time
Traveled:
598nm/2:30
Distance/Time
To Go:
Arrived

Flight Plot

Page will automatically refresh every two minutes.

Flight plan parsing failed; only flown route is shown


Map Options




Map Legend


Flown Route
Filed Route
Departure Airport
Arrival Airport
Navaid (VOR, NDB)
Fix

Horizontal Profiles

Position Reports

Time Latitude Longitude Heading Altitude Ground
Speed
19-Nov-20 19:25 40.483086 -111.424370 228 5621ft 0kts
19-Nov-20 19:26 40.483149 -111.424598 310 5621ft 7kts
19-Nov-20 19:27 40.482114 -111.426990 229 5614ft 12kts
19-Nov-20 19:28 40.478855 -111.432039 230 5599ft 16kts
19-Nov-20 19:29 40.476030 -111.436413 230 5586ft 18kts
19-Nov-20 19:30 40.481166 -111.429747 44 5628ft 105kts
19-Nov-20 19:31 40.511086 -111.407813 4 7210ft 138kts
19-Nov-20 19:32 40.549898 -111.400841 3 9097ft 141kts
19-Nov-20 19:33 40.591039 -111.393947 2 11299ft 149kts
19-Nov-20 19:34 40.633332 -111.386895 1 13392ft 156kts
19-Nov-20 19:35 40.677146 -111.379595 357 15746ft 159kts
19-Nov-20 19:36 40.722539 -111.372093 355 17994ft 166kts
19-Nov-20 19:37 40.769864 -111.364258 352 20292ft 172kts
19-Nov-20 19:38 40.818903 -111.356144 350 22370ft 179kts
19-Nov-20 19:39 40.870088 -111.347667 349 24275ft 189kts
19-Nov-20 19:40 40.923969 -111.338666 347 26602ft 197kts
19-Nov-20 19:41 40.982972 -111.329180 349 28070ft 248kts
19-Nov-20 19:42 41.056873 -111.332990 314 28372ft 249kts
19-Nov-20 19:43 41.093597 -111.406161 278 28351ft 235kts
19-Nov-20 19:44 41.109168 -111.493466 275 28334ft 238kts
19-Nov-20 19:45 41.123045 -111.581742 275 28329ft 239kts
19-Nov-20 19:46 41.136822 -111.670664 274 28342ft 239kts
19-Nov-20 19:47 41.150516 -111.759440 274 28339ft 241kts
19-Nov-20 19:48 41.164223 -111.848879 274 28337ft 242kts
19-Nov-20 19:49 41.177926 -111.938718 274 28334ft 242kts
19-Nov-20 19:50 41.191675 -112.029431 274 28332ft 242kts
19-Nov-20 19:51 41.205537 -112.121426 274 28330ft 241kts
19-Nov-20 19:52 41.219371 -112.213689 274 28326ft 241kts
19-Nov-20 19:53 41.233205 -112.306557 274 28323ft 241kts
19-Nov-20 19:54 41.246951 -112.399312 274 28323ft 241kts
19-Nov-20 19:55 41.260603 -112.492005 274 28323ft 240kts
19-Nov-20 19:56 41.270640 -112.584174 271 28322ft 238kts
19-Nov-20 19:57 41.277950 -112.676666 270 28346ft 238kts
19-Nov-20 19:58 41.285147 -112.769127 270 28354ft 239kts
19-Nov-20 19:59 41.292284 -112.862098 270 28357ft 240kts
19-Nov-20 20:00 41.299331 -112.954714 271 28356ft 241kts
19-Nov-20 20:01 41.306616 -113.051468 272 28355ft 243kts
19-Nov-20 20:02 41.313782 -113.147580 272 28347ft 244kts
19-Nov-20 20:03 41.320958 -113.245093 272 28338ft 244kts
19-Nov-20 20:04 41.328028 -113.342340 272 28333ft 244kts
19-Nov-20 20:05 41.334987 -113.439202 272 28332ft 243kts
19-Nov-20 20:06 41.341860 -113.535983 272 28330ft 243kts
19-Nov-20 20:07 41.348681 -113.633229 272 28329ft 242kts
19-Nov-20 20:08 41.355395 -113.730153 271 28342ft 244kts
19-Nov-20 20:09 41.362045 -113.826926 271 28359ft 244kts
19-Nov-20 20:10 41.386858 -113.921995 283 28357ft 251kts
19-Nov-20 20:11 41.414623 -114.017036 283 28356ft 252kts
19-Nov-20 20:12 41.442412 -114.112421 283 28355ft 251kts
19-Nov-20 20:13 41.470123 -114.207875 283 28353ft 251kts
19-Nov-20 20:14 41.497644 -114.303034 283 28356ft 251kts
19-Nov-20 20:15 41.524931 -114.397735 283 28365ft 250kts
19-Nov-20 20:16 41.551917 -114.491726 283 28380ft 250kts
19-Nov-20 20:17 41.579058 -114.586615 283 28387ft 250kts
19-Nov-20 20:18 41.605986 -114.681134 283 28408ft 250kts
19-Nov-20 20:19 41.633127 -114.776719 283 28406ft 252kts
19-Nov-20 20:20 41.659887 -114.871330 283 28405ft 252kts
19-Nov-20 20:21 41.686811 -114.966868 283 28403ft 252kts
19-Nov-20 20:22 41.713727 -115.062706 282 28396ft 254kts
19-Nov-20 20:24 41.740811 -115.159560 282 28395ft 257kts
19-Nov-20 20:25 41.768073 -115.257471 282 28392ft 261kts
19-Nov-20 20:26 41.795334 -115.355713 282 28374ft 262kts
19-Nov-20 20:27 41.822671 -115.454619 282 28364ft 262kts
19-Nov-20 20:28 41.849124 -115.550698 282 28360ft 262kts
19-Nov-20 20:29 41.875194 -115.645754 282 28349ft 262kts
19-Nov-20 20:30 41.901098 -115.740566 281 28353ft 263kts
19-Nov-20 20:31 41.927257 -115.836676 281 28354ft 263kts
19-Nov-20 20:32 41.953346 -115.932910 281 28365ft 263kts
19-Nov-20 20:33 41.979372 -116.029285 281 28375ft 262kts
19-Nov-20 20:34 42.005579 -116.126716 281 28386ft 262kts
19-Nov-20 20:35 42.031875 -116.224861 281 28402ft 262kts
19-Nov-20 20:36 42.057819 -116.322081 281 28416ft 262kts
19-Nov-20 20:37 42.083663 -116.419321 281 28419ft 262kts
19-Nov-20 20:38 42.109197 -116.515764 281 28412ft 261kts
19-Nov-20 20:39 42.135015 -116.613674 281 28411ft 260kts
19-Nov-20 20:40 42.160243 -116.709757 281 28416ft 261kts
19-Nov-20 20:40 42.181292 -116.790194 281 28406ft 262kts
19-Nov-20 20:42 42.210677 -116.903005 281 28393ft 262kts
19-Nov-20 20:42 42.231534 -116.983445 282 28392ft 260kts
19-Nov-20 20:44 42.261086 -117.097762 284 28391ft 257kts
19-Nov-20 20:44 42.282122 -117.179341 285 28391ft 256kts
19-Nov-20 20:46 42.311320 -117.293179 285 28389ft 255kts
19-Nov-20 20:46 42.332158 -117.374779 285 28388ft 255kts
19-Nov-20 20:48 42.361135 -117.488725 285 28387ft 255kts
19-Nov-20 20:48 42.381799 -117.570322 284 28386ft 254kts
19-Nov-20 20:49 42.406015 -117.666339 284 28397ft 254kts
19-Nov-20 20:50 42.430254 -117.762785 284 28396ft 256kts
19-Nov-20 20:51 42.452706 -117.862476 281 28395ft 255kts
19-Nov-20 20:52 42.472832 -117.963841 281 28394ft 255kts
19-Nov-20 20:53 42.492601 -118.064131 281 28392ft 255kts
19-Nov-20 20:54 42.512298 -118.164567 281 28391ft 254kts
19-Nov-20 20:55 42.531780 -118.264424 281 28390ft 254kts
19-Nov-20 20:56 42.550989 -118.363371 281 28389ft 254kts
19-Nov-20 20:57 42.570286 -118.463288 281 28387ft 254kts
19-Nov-20 20:58 42.589581 -118.563704 281 28386ft 253kts
19-Nov-20 20:59 42.608848 -118.664544 281 28398ft 253kts
19-Nov-20 21:00 42.628048 -118.765482 281 28402ft 254kts
19-Nov-20 21:01 42.647201 -118.866523 280 28405ft 250kts
19-Nov-20 21:02 42.666120 -118.967045 278 28409ft 251kts
19-Nov-20 21:03 42.685048 -119.068275 277 28412ft 255kts
19-Nov-20 21:04 42.704259 -119.171551 277 28411ft 256kts
19-Nov-20 21:05 42.723181 -119.273739 277 28410ft 257kts
19-Nov-20 21:06 42.741949 -119.375648 277 28409ft 257kts
19-Nov-20 21:07 42.760770 -119.478406 277 28408ft 257kts
19-Nov-20 21:08 42.779471 -119.581068 277 28401ft 257kts
19-Nov-20 21:09 42.797799 -119.682152 276 28410ft 257kts
19-Nov-20 21:10 42.816146 -119.784062 276 28407ft 258kts
19-Nov-20 21:11 42.834717 -119.887704 276 28405ft 259kts
19-Nov-20 21:12 42.853217 -119.991538 276 28404ft 259kts
19-Nov-20 21:13 42.871661 -120.095649 276 28403ft 258kts
19-Nov-20 21:14 42.889969 -120.199669 277 28402ft 258kts
19-Nov-20 21:15 42.908178 -120.303663 278 28401ft 258kts
19-Nov-20 21:16 42.926111 -120.406644 278 28399ft 258kts
19-Nov-20 21:17 42.943937 -120.509602 279 28398ft 258kts
19-Nov-20 21:18 42.961234 -120.610087 279 28397ft 258kts
19-Nov-20 21:19 42.978375 -120.710208 279 28406ft 260kts
19-Nov-20 21:20 42.995653 -120.811701 280 28404ft 261kts
19-Nov-20 21:21 43.012770 -120.912865 281 28403ft 262kts
19-Nov-20 21:22 43.030043 -121.015496 281 28398ft 263kts
19-Nov-20 21:23 43.047905 -121.122178 281 28392ft 265kts
19-Nov-20 21:24 43.065839 -121.230087 281 28390ft 267kts
19-Nov-20 21:25 43.083711 -121.338325 281 28395ft 267kts
19-Nov-20 21:26 43.101416 -121.446236 281 28401ft 267kts
19-Nov-20 21:27 43.118398 -121.550283 281 28406ft 267kts
19-Nov-20 21:28 43.135381 -121.655096 280 28413ft 266kts
19-Nov-20 21:29 43.152224 -121.759608 280 28414ft 268kts
19-Nov-20 21:30 43.169252 -121.865915 280 28397ft 268kts
19-Nov-20 21:31 43.185679 -121.969239 280 28158ft 275kts
19-Nov-20 21:32 43.203365 -122.081181 280 26772ft 296kts
19-Nov-20 21:33 43.221480 -122.196556 281 25385ft 299kts
19-Nov-20 21:34 43.239341 -122.311024 281 24448ft 284kts
19-Nov-20 21:35 43.251029 -122.419576 277 23900ft 276kts
19-Nov-20 21:36 43.262003 -122.531055 277 22297ft 281kts
19-Nov-20 21:37 43.273106 -122.644962 277 20674ft 284kts
19-Nov-20 21:38 43.284032 -122.758192 277 19103ft 286kts
19-Nov-20 21:39 43.294872 -122.871734 277 17537ft 287kts
19-Nov-20 21:40 43.305464 -122.983941 277 15966ft 283kts
19-Nov-20 21:41 43.314587 -123.095458 273 14400ft 278kts
19-Nov-20 21:42 43.318901 -123.204015 273 12821ft 271kts
19-Nov-20 21:43 43.322957 -123.313540 273 11223ft 271kts
19-Nov-20 21:44 43.326930 -123.423720 273 9988ft 260kts
19-Nov-20 21:45 43.330512 -123.525191 273 9989ft 244kts
19-Nov-20 21:46 43.333842 -123.622388 273 9990ft 242kts
19-Nov-20 21:47 43.337073 -123.719100 273 9995ft 242kts
19-Nov-20 21:48 43.340152 -123.812733 271 9937ft 216kts
19-Nov-20 21:49 43.342800 -123.896333 271 8399ft 215kts
19-Nov-20 21:50 43.328899 -123.976090 251 6877ft 214kts
19-Nov-20 21:51 43.310938 -124.054636 251 5595ft 204kts
19-Nov-20 21:52 43.294353 -124.126974 251 4847ft 198kts
19-Nov-20 21:53 43.277754 -124.199119 251 3970ft 196kts
19-Nov-20 21:54 43.270387 -124.270204 270 3396ft 189kts
19-Nov-20 21:55 43.271972 -124.342070 270 2576ft 196kts
19-Nov-20 21:56 43.292490 -124.401649 322 2492ft 180kts
19-Nov-20 21:57 43.338332 -124.411289 19 2468ft 177kts
19-Nov-20 21:58 43.373534 -124.361001 61 1652ft 190kts
19-Nov-20 21:59 43.399700 -124.297262 61 639ft 170kts
19-Nov-20 22:00 43.416422 -124.256500 62 12ft 70kts
19-Nov-20 22:01 43.417519 -124.250864 90 25ft 0kts
19-Nov-20 22:02 43.418498 -124.248308 61 21ft 19kts
19-Nov-20 22:03 43.415961 -124.244571 150 20ft 14kts
19-Nov-20 22:04 43.414940 -124.244674 330 22ft 0kts
19-Nov-20 22:05 43.414940 -124.244674 330 22ft 0kts
19-Nov-20 22:06 43.414940 -124.244674 330 22ft 0kts
19-Nov-20 22:07 43.414940 -124.244674 330 22ft 0kts

Navigation Log

Ident Type
Flight plan parsing failed, navigation log unavailable